createdAt,value
2019-04-01T00:02:26.506Z,73.9
2019-04-01T00:07:26.526Z,74.6
2019-04-01T00:12:26.534Z,72.9
2019-04-01T00:17:26.515Z,72.6
2019-04-01T00:22:26.542Z,74.4
2019-04-01T00:27:26.549Z,72.2
2019-04-01T00:32:26.540Z,71.7
2019-04-01T00:37:26.549Z,72.1
2019-04-01T00:42:26.615Z,72.5
2019-04-01T00:47:26.530Z,73.8
2019-04-01T00:52:26.543Z,73.5
2019-04-01T00:57:26.564Z,74.4
2019-04-01T01:02:26.570Z,73.9
2019-04-01T01:07:26.505Z,72.5
2019-04-01T01:12:26.559Z,73
2019-04-01T01:17:26.561Z,73
2019-04-01T01:22:26.592Z,74.4
2019-04-01T01:27:26.573Z,74.4
2019-04-01T01:32:26.571Z,73.4
2019-04-01T01:37:26.568Z,73.8
2019-04-01T01:42:26.587Z,73.5
2019-04-01T01:47:26.584Z,72.6
2019-04-01T01:52:26.569Z,72
2019-04-01T01:57:26.581Z,71.6
2019-04-01T02:02:26.596Z,72
2019-04-01T02:07:26.581Z,71.9
2019-04-01T02:12:26.605Z,74.6
2019-04-01T02:17:26.605Z,73.2
2019-04-01T02:22:26.606Z,73.5
2019-04-01T02:27:26.614Z,73.3
2019-04-01T02:32:26.547Z,73.4
2019-04-01T02:37:26.596Z,73.1
2019-04-01T02:42:26.643Z,73.9
2019-04-01T02:47:26.616Z,76
2019-04-01T02:52:26.601Z,76.6
2019-04-01T02:57:26.617Z,75.5
2019-04-01T03:02:26.610Z,75
2019-04-01T03:07:26.630Z,75.5
2019-04-01T03:12:26.639Z,75.6
2019-04-01T03:17:26.618Z,74.4
2019-04-01T03:22:26.649Z,74.9
2019-04-01T03:27:26.581Z,74.2
2019-04-01T03:32:26.771Z,75.2
2019-04-01T03:37:26.777Z,75.3
2019-04-01T03:42:26.614Z,75
2019-04-01T03:47:26.619Z,75.2
2019-04-01T03:52:26.668Z,74.7
2019-04-01T03:57:26.590Z,74.6
2019-04-01T04:02:26.636Z,74.5
2019-04-01T04:07:26.642Z,75.2
2019-04-01T04:12:26.650Z,74.8
2019-04-01T04:17:26.672Z,74.4
2019-04-01T04:22:26.701Z,73.5
2019-04-01T04:27:26.655Z,74.2
2019-04-01T04:32:26.688Z,73.5
2019-04-01T04:37:26.661Z,74.1
2019-04-01T04:42:26.685Z,74.2
2019-04-01T04:47:26.686Z,74.1
2019-04-01T04:52:26.681Z,74.4
2019-04-01T04:57:26.678Z,74.3
2019-04-01T05:02:26.689Z,74.7
2019-04-01T05:07:26.671Z,74.8
2019-04-01T05:12:26.670Z,74.4
2019-04-01T05:17:26.671Z,73.8
2019-04-01T05:22:26.682Z,73.9
2019-04-01T05:27:26.680Z,74.1
2019-04-01T05:32:26.676Z,74.2
2019-04-01T05:37:26.713Z,74.4
2019-04-01T05:42:26.702Z,74
2019-04-01T05:47:26.709Z,74.5
2019-04-01T05:52:29.627Z,73.6
2019-04-01T05:57:26.716Z,74.1
2019-04-01T06:02:26.717Z,72.9
2019-04-01T06:07:26.734Z,73.1
2019-04-01T06:12:26.710Z,72.7
2019-04-01T06:17:26.725Z,72.1
2019-04-01T06:22:26.715Z,70.6
2019-04-01T06:27:27.746Z,70
2019-04-01T06:32:26.733Z,69.9
2019-04-01T06:37:26.821Z,69
2019-04-01T06:42:26.684Z,69.3
2019-04-01T06:47:26.722Z,68.8
2019-04-01T06:52:26.713Z,68.8
2019-04-01T06:57:26.735Z,68.9
2019-04-01T07:02:26.746Z,67.6
2019-04-01T07:07:26.686Z,67.7
2019-04-01T07:12:26.739Z,68.4
2019-04-01T07:17:26.747Z,68.3
2019-04-01T07:22:26.754Z,67.9
2019-04-01T07:27:26.753Z,67.7
2019-04-01T07:32:26.747Z,68.6
2019-04-01T07:37:26.764Z,67
2019-04-01T07:42:28.993Z,66.9
2019-04-01T07:47:28.990Z,67.1
2019-04-01T07:52:29.005Z,65.7
2019-04-01T07:57:32.913Z,65.5
2019-04-01T08:02:29.015Z,64
2019-04-01T08:07:29.022Z,61.5
2019-04-01T08:12:29.003Z,62.2
2019-04-01T08:17:29.028Z,60.9
2019-04-01T08:22:28.995Z,60.1
2019-04-01T08:27:29.008Z,59.2
2019-04-01T08:32:29.022Z,59.4
2019-04-01T08:37:29.018Z,58.9
2019-04-01T08:42:29.017Z,58.9
2019-04-01T08:47:29.049Z,57.5
2019-04-01T08:52:29.038Z,58.3
2019-04-01T08:57:28.983Z,57.7
2019-04-01T09:02:29.048Z,56
2019-04-01T09:07:28.980Z,55.9
2019-04-01T09:12:29.045Z,55.6
2019-04-01T09:17:29.056Z,54.9
2019-04-01T09:22:29.077Z,54.3
2019-04-01T09:27:28.997Z,54.5
2019-04-01T09:32:29.036Z,52.9
2019-04-01T09:37:29.052Z,53.2
2019-04-01T09:42:29.134Z,53.6
2019-04-01T09:47:29.123Z,53.4
2019-04-01T09:52:29.145Z,52.4
2019-04-01T09:57:29.078Z,52.6
2019-04-01T10:02:32.495Z,52.2
2019-04-01T10:07:29.343Z,52.2
2019-04-01T10:12:29.133Z,50.9
2019-04-01T10:17:29.129Z,52.1
2019-04-01T10:22:29.138Z,50.9
2019-04-01T10:27:29.150Z,50.5
2019-04-01T10:32:29.151Z,49.9
2019-04-01T10:37:29.152Z,50.9
2019-04-01T10:42:29.146Z,49.9
2019-04-01T10:47:29.263Z,50
2019-04-01T10:52:29.190Z,49
2019-04-01T10:57:29.393Z,48.8
2019-04-01T11:02:29.207Z,49.5
2019-04-01T11:07:29.257Z,48.1
2019-04-01T11:12:29.170Z,48.4
2019-04-01T11:17:29.165Z,47.7
2019-04-01T11:22:29.219Z,47.9
2019-04-01T11:27:29.172Z,47.6
2019-04-01T11:32:29.304Z,46.7
2019-04-01T11:37:29.179Z,46.9
2019-04-01T11:42:29.204Z,47.2
2019-04-01T11:47:29.203Z,47.2
2019-04-01T11:52:29.246Z,46.8
2019-04-01T11:57:29.187Z,47
2019-04-01T12:02:29.209Z,46.2
2019-04-01T12:07:29.193Z,46.2
2019-04-01T12:12:29.198Z,46.4
2019-04-01T12:17:29.206Z,46.6
2019-04-01T12:22:29.194Z,46.1
2019-04-01T12:27:29.265Z,45.3
2019-04-01T12:32:29.198Z,45.9
2019-04-01T12:37:30.457Z,45
2019-04-01T12:42:29.226Z,44.2
2019-04-01T12:47:29.211Z,44.9
2019-04-01T12:52:29.211Z,44.8
2019-04-01T12:57:29.226Z,44.3
2019-04-01T13:02:29.220Z,45.3
2019-04-01T13:07:29.220Z,44.6
2019-04-01T13:12:29.205Z,42.8
2019-04-01T13:17:29.231Z,43.6
2019-04-01T13:22:29.227Z,44.3
2019-04-01T13:27:29.460Z,44.6
2019-04-01T13:32:29.191Z,42.5
2019-04-01T13:37:29.233Z,42.5
2019-04-01T13:42:29.235Z,43.4
2019-04-01T13:47:29.257Z,42.3
2019-04-01T13:52:29.238Z,40.7
2019-04-01T13:57:29.252Z,41.2
2019-04-01T14:02:31.240Z,41.2
2019-04-01T14:07:29.221Z,42.2
2019-04-01T14:12:29.258Z,40.8
2019-04-01T14:17:29.255Z,41
2019-04-01T14:22:29.263Z,40.2
2019-04-01T14:27:29.237Z,40.4
2019-04-01T14:32:29.262Z,41.1
2019-04-01T14:37:30.368Z,42
2019-04-01T14:42:29.317Z,42.1
2019-04-01T14:47:29.279Z,41.3
2019-04-01T14:52:33.130Z,41.2
2019-04-01T14:57:29.268Z,42.2
2019-04-01T15:02:29.308Z,42.1
2019-04-01T15:07:29.282Z,41.9
2019-04-01T15:12:29.282Z,41.9
2019-04-01T15:17:29.286Z,41.8
2019-04-01T15:22:29.369Z,42.6
2019-04-01T15:27:29.305Z,42.7
2019-04-01T15:32:29.298Z,42.7
2019-04-01T15:37:32.492Z,42.8
2019-04-01T15:42:29.358Z,42.5
2019-04-01T15:47:29.383Z,42.5
2019-04-01T15:52:29.302Z,42.5
2019-04-01T15:57:29.317Z,42.8
2019-04-01T16:02:29.336Z,44.4
2019-04-01T16:07:29.410Z,42.4
2019-04-01T16:12:29.338Z,43.4
2019-04-01T16:17:29.333Z,42.8
2019-04-01T16:22:29.281Z,42.7
2019-04-01T16:27:30.347Z,42.2
2019-04-01T16:32:29.666Z,42.6
2019-04-01T16:37:29.315Z,42.3
2019-04-01T16:42:29.313Z,43
2019-04-01T16:47:29.348Z,42.3
2019-04-01T16:52:29.835Z,42.9
2019-04-01T16:57:29.602Z,42.2
2019-04-01T17:02:32.651Z,42.2
2019-04-01T17:07:29.316Z,42.5
2019-04-01T17:12:29.373Z,42.5
2019-04-01T17:17:30.390Z,43.6
2019-04-01T17:22:29.399Z,42.1
2019-04-01T17:27:29.362Z,43.5
2019-04-01T17:32:29.713Z,42.5
2019-04-01T17:37:29.408Z,43.2
2019-04-01T17:42:29.408Z,43
2019-04-01T17:47:29.418Z,43.3
2019-04-01T17:52:29.447Z,43.3
2019-04-01T17:57:29.398Z,43.1
2019-04-01T18:02:29.402Z,43.4
2019-04-01T18:07:29.374Z,44.3
2019-04-01T18:12:29.389Z,44
2019-04-01T18:17:29.401Z,44.3
2019-04-01T18:22:29.528Z,44.1
2019-04-01T18:27:29.404Z,45.1
2019-04-01T18:32:31.521Z,44.8
2019-04-01T18:37:29.567Z,44.2
2019-04-01T18:42:31.648Z,44.6
2019-04-01T18:47:29.469Z,44.7
2019-04-01T18:52:29.473Z,44.9
2019-04-01T18:57:29.491Z,44.9
2019-04-01T19:02:29.487Z,45.6
2019-04-01T19:07:29.515Z,45.8
2019-04-01T19:12:29.542Z,45.8
2019-04-01T19:17:29.475Z,45.6
2019-04-01T19:22:29.518Z,45.5
2019-04-01T19:27:29.437Z,45.4
2019-04-01T19:32:29.492Z,46.1
2019-04-01T19:37:29.520Z,45.5
2019-04-01T19:42:29.546Z,45.9
2019-04-01T19:47:29.412Z,45.3
2019-04-01T19:52:29.465Z,45
2019-04-01T19:57:29.444Z,44.9
2019-04-01T20:02:29.480Z,44.5
2019-04-01T20:07:29.445Z,43.6
2019-04-01T20:12:29.506Z,44
2019-04-01T20:17:29.479Z,42.9
2019-04-01T20:22:29.465Z,43.8
2019-04-01T20:27:29.579Z,43.8
2019-04-01T20:32:29.604Z,42.8
2019-04-01T20:37:29.992Z,43.5
2019-04-01T20:42:29.458Z,43.3
2019-04-01T20:47:29.477Z,43.4
2019-04-01T20:52:29.419Z,43.4
2019-04-01T20:57:29.500Z,42.8
2019-04-01T21:02:29.459Z,42.5
2019-04-01T21:07:29.461Z,42.3
2019-04-01T21:12:29.489Z,43
2019-04-01T21:17:29.471Z,42.8
2019-04-01T21:22:29.465Z,43.2
2019-04-01T21:27:29.489Z,42.9
2019-04-01T21:32:29.498Z,43.1
2019-04-01T21:37:29.487Z,42.9
2019-04-01T21:42:29.497Z,43.9
2019-04-01T21:47:29.494Z,43.6
2019-04-01T21:52:29.487Z,43.5
2019-04-01T21:57:29.485Z,43.8
2019-04-01T22:02:36.493Z,43.7
2019-04-01T22:07:29.495Z,44.5
2019-04-01T22:12:29.496Z,45.1
2019-04-01T22:17:29.512Z,44.1
2019-04-01T22:22:29.500Z,45.3
2019-04-01T22:27:29.539Z,45
2019-04-01T22:32:29.515Z,45.5
2019-04-01T22:37:29.511Z,45.4
2019-04-01T22:42:29.512Z,45.5
2019-04-01T22:47:29.517Z,45.3
2019-04-01T22:52:29.534Z,46.1
2019-04-01T22:57:29.522Z,46
2019-04-01T23:02:29.522Z,45.8
2019-04-01T23:07:29.520Z,46.8
2019-04-01T23:12:29.528Z,47.1
2019-04-01T23:17:29.547Z,46.6
2019-04-01T23:22:29.837Z,47.1
2019-04-01T23:27:29.514Z,47.3
2019-04-01T23:32:29.536Z,46.9
2019-04-01T23:37:29.527Z,47.2
2019-04-01T23:42:29.537Z,47.2
2019-04-01T23:47:30.718Z,47.2
2019-04-01T23:52:29.559Z,47.5
2019-04-01T23:57:29.560Z,47.8
